createdAt,value
2023-12-09T00:01:03.701Z,24.37
2023-12-09T00:03:35.881Z,24.42
2023-12-09T00:06:05.518Z,24.25
2023-12-09T00:08:35.000Z,22.13
2023-12-09T00:11:04.051Z,27.37
2023-12-09T00:13:34.808Z,24.63
2023-12-09T00:16:04.581Z,25.33
2023-12-09T00:18:39.537Z,26.75
2023-12-09T00:21:08.868Z,25.40
2023-12-09T00:23:47.220Z,24.67
2023-12-09T00:26:19.353Z,23.70
2023-12-09T00:28:48.369Z,30.52
2023-12-09T00:31:17.592Z,34.33
2023-12-09T00:33:48.034Z,38.40
2023-12-09T00:36:17.198Z,28.60
2023-12-09T00:38:46.255Z,24.37
2023-12-09T00:41:15.550Z,26.00
2023-12-09T00:43:45.301Z,25.37
2023-12-09T00:46:14.246Z,25.27
2023-12-09T00:48:43.779Z,25.37
2023-12-09T00:51:17.012Z,22.90
2023-12-09T00:53:46.026Z,23.23
2023-12-09T00:56:15.322Z,23.87
2023-12-09T00:59:02.296Z,23.75
2023-12-09T01:01:32.084Z,23.98
2023-12-09T01:04:02.665Z,25.73
2023-12-09T01:06:33.598Z,26.05
2023-12-09T01:09:02.593Z,25.23
2023-12-09T01:11:34.266Z,25.20
2023-12-09T01:14:03.457Z,23.17
2023-12-09T01:16:32.910Z,26.98
2023-12-09T01:19:02.223Z,26.15
2023-12-09T01:21:31.411Z,24.58
2023-12-09T01:24:02.555Z,24.87
2023-12-09T01:26:31.429Z,25.88
2023-12-09T01:29:03.496Z,24.02
2023-12-09T01:31:36.577Z,26.67
2023-12-09T01:34:06.736Z,27.20
2023-12-09T01:36:36.124Z,24.92
2023-12-09T01:39:06.814Z,28.80
2023-12-09T01:41:36.621Z,29.37
2023-12-09T01:44:08.067Z,27.77
2023-12-09T01:46:37.591Z,27.27
2023-12-09T01:49:07.473Z,28.48
2023-12-09T01:51:39.454Z,26.52
2023-12-09T01:54:12.186Z,27.45
2023-12-09T01:56:42.558Z,27.73
2023-12-09T01:59:12.056Z,27.20
2023-12-09T02:01:41.192Z,26.17
2023-12-09T02:04:11.146Z,33.63
2023-12-09T02:06:40.649Z,29.33
2023-12-09T02:09:10.629Z,25.05
2023-12-09T02:11:50.545Z,24.87
2023-12-09T02:14:30.866Z,27.37
2023-12-09T02:17:05.983Z,24.83
2023-12-09T02:19:35.810Z,24.83
2023-12-09T02:22:08.158Z,25.05
2023-12-09T02:24:39.246Z,26.52
2023-12-09T02:27:12.696Z,24.25
2023-12-09T02:29:51.037Z,23.17
2023-12-09T02:32:25.153Z,24.75
2023-12-09T02:34:56.277Z,27.48
2023-12-09T02:37:29.544Z,25.05
2023-12-09T02:40:02.040Z,25.60
2023-12-09T02:42:31.864Z,23.67
2023-12-09T02:45:01.944Z,25.30
2023-12-09T02:47:31.349Z,26.17
2023-12-09T02:50:00.537Z,26.75
2023-12-09T02:52:31.915Z,25.67
2023-12-09T02:55:02.313Z,24.75
2023-12-09T02:57:34.662Z,24.52
2023-12-09T03:00:06.855Z,25.27
2023-12-09T03:02:36.233Z,23.35
2023-12-09T03:05:05.890Z,25.23
2023-12-09T03:07:35.500Z,25.73
2023-12-09T03:10:07.022Z,25.05
2023-12-09T03:12:36.344Z,25.23
2023-12-09T03:15:07.733Z,24.83
2023-12-09T03:17:38.632Z,26.47
2023-12-09T03:20:10.032Z,24.23
2023-12-09T03:22:39.148Z,26.10
2023-12-09T03:25:12.476Z,24.37
2023-12-09T03:27:41.448Z,25.90
2023-12-09T03:30:12.015Z,24.95
2023-12-09T03:32:41.428Z,25.40
2023-12-09T03:35:13.502Z,23.45
2023-12-09T03:37:42.464Z,22.58
2023-12-09T03:40:14.379Z,25.62
2023-12-09T03:42:43.745Z,24.90
2023-12-09T03:45:13.378Z,24.37
2023-12-09T03:47:42.655Z,24.60
2023-12-09T03:50:12.209Z,24.80
2023-12-09T03:52:41.682Z,25.17
2023-12-09T03:55:11.151Z,24.98
2023-12-09T03:57:43.719Z,26.02
2023-12-09T04:00:15.173Z,25.85
2023-12-09T04:02:44.600Z,27.08
2023-12-09T04:05:13.540Z,24.70
2023-12-09T04:07:43.050Z,27.20
2023-12-09T04:10:12.427Z,27.25
2023-12-09T04:12:43.037Z,26.08
2023-12-09T04:15:14.205Z,25.45
2023-12-09T04:17:43.640Z,26.35
2023-12-09T04:20:13.925Z,25.55
2023-12-09T04:22:43.210Z,25.90
2023-12-09T04:25:12.813Z,25.60
2023-12-09T04:27:44.198Z,24.27
2023-12-09T04:30:14.516Z,26.10
2023-12-09T04:32:43.974Z,24.85
2023-12-09T04:35:13.551Z,24.30
2023-12-09T04:37:43.189Z,21.75
2023-12-09T04:40:16.507Z,26.40
2023-12-09T04:42:48.826Z,24.75
2023-12-09T04:45:18.209Z,24.10
2023-12-09T04:47:47.607Z,24.90
2023-12-09T04:50:16.603Z,26.55
2023-12-09T04:52:45.611Z,25.83
2023-12-09T04:55:14.970Z,24.95
2023-12-09T04:57:44.129Z,26.08
2023-12-09T05:00:17.442Z,25.95
2023-12-09T05:02:47.763Z,25.92
2023-12-09T05:05:16.944Z,23.00
2023-12-09T05:07:46.044Z,26.87
2023-12-09T05:10:15.336Z,26.00
2023-12-09T05:12:44.488Z,24.83
2023-12-09T05:15:16.672Z,24.73
2023-12-09T05:17:45.987Z,25.90
2023-12-09T05:20:15.342Z,24.77
2023-12-09T05:22:46.352Z,26.17
2023-12-09T05:25:16.072Z,25.90
2023-12-09T05:27:45.162Z,25.85
2023-12-09T05:30:16.651Z,26.48
2023-12-09T05:32:47.305Z,26.95
2023-12-09T05:35:16.353Z,26.33
2023-12-09T05:37:45.964Z,23.80
2023-12-09T05:40:15.453Z,25.48
2023-12-09T05:42:44.378Z,26.77
2023-12-09T05:45:13.649Z,26.25
2023-12-09T05:47:44.474Z,26.80
2023-12-09T05:50:14.212Z,26.43
2023-12-09T05:52:43.929Z,25.08
2023-12-09T05:55:17.195Z,28.42
2023-12-09T05:57:46.534Z,26.37
2023-12-09T06:00:16.952Z,26.27
2023-12-09T06:02:47.991Z,25.73
2023-12-09T06:05:17.117Z,26.77
2023-12-09T06:07:46.413Z,25.92
2023-12-09T06:10:16.799Z,30.05
2023-12-09T06:12:46.743Z,27.62
2023-12-09T06:15:15.972Z,27.08
2023-12-09T06:17:45.233Z,30.12
2023-12-09T06:20:16.090Z,29.35
2023-12-09T06:22:45.098Z,29.73
2023-12-09T06:25:14.433Z,27.15
2023-12-09T06:27:43.789Z,28.00
2023-12-09T06:30:15.799Z,31.80
2023-12-09T06:32:45.908Z,36.58
2023-12-09T06:35:16.461Z,36.08
2023-12-09T06:37:46.040Z,36.70
2023-12-09T06:40:15.316Z,32.25
2023-12-09T06:42:44.724Z,33.08
2023-12-09T06:45:14.152Z,34.08
2023-12-09T06:47:45.297Z,35.20
2023-12-09T06:50:14.497Z,32.33
2023-12-09T06:52:47.181Z,32.40
2023-12-09T06:55:16.684Z,39.42
2023-12-09T06:57:46.561Z,35.20
2023-12-09T07:00:17.085Z,32.25
2023-12-09T07:02:56.426Z,31.80
2023-12-09T07:05:28.968Z,31.75
2023-12-09T07:07:59.716Z,33.00
2023-12-09T07:10:28.787Z,35.78
2023-12-09T07:12:57.967Z,37.50
2023-12-09T07:15:27.558Z,36.53
2023-12-09T07:17:56.799Z,33.72
2023-12-09T07:20:25.797Z,29.83
2023-12-09T07:22:55.038Z,28.45
2023-12-09T07:25:27.018Z,26.52
2023-12-09T07:27:56.323Z,27.13
2023-12-09T07:30:25.952Z,28.08
2023-12-09T07:32:55.293Z,26.83
2023-12-09T07:35:26.401Z,26.30
2023-12-09T07:37:56.546Z,28.67
2023-12-09T07:40:27.381Z,26.42
2023-12-09T07:42:56.278Z,30.67
2023-12-09T07:45:25.769Z,30.50
2023-12-09T07:47:56.081Z,28.02
2023-12-09T07:50:25.274Z,29.48
2023-12-09T07:53:01.692Z,27.95
2023-12-09T07:58:02.199Z,25.62
2023-12-09T08:00:32.936Z,27.75
2023-12-09T08:03:05.617Z,27.48
2023-12-09T08:05:35.967Z,26.67
2023-12-09T08:08:05.703Z,30.60
2023-12-09T08:10:36.221Z,26.55
2023-12-09T08:13:06.207Z,30.15
2023-12-09T08:15:35.346Z,27.13
2023-12-09T08:18:04.999Z,29.75
2023-12-09T08:20:35.923Z,28.80
2023-12-09T08:23:05.736Z,28.40
2023-12-09T08:25:36.963Z,26.15
2023-12-09T08:28:07.057Z,29.80
2023-12-09T08:30:35.633Z,28.55
2023-12-09T08:33:06.199Z,28.33
2023-12-09T08:35:36.834Z,29.17
2023-12-09T08:38:06.707Z,44.03
2023-12-09T08:40:37.414Z,41.65
2023-12-09T08:43:06.976Z,40.20
2023-12-09T08:45:35.830Z,33.03
2023-12-09T08:48:05.167Z,25.98
2023-12-09T08:50:34.726Z,25.55
2023-12-09T08:53:04.078Z,31.55
2023-12-09T08:55:33.239Z,36.85
2023-12-09T08:58:04.758Z,28.80
2023-12-09T09:00:33.683Z,28.00
2023-12-09T09:03:06.001Z,26.40
2023-12-09T09:05:37.033Z,26.52
2023-12-09T09:08:07.210Z,26.77
2023-12-09T09:10:36.345Z,27.75
2023-12-09T09:13:06.888Z,28.55
2023-12-09T09:15:37.073Z,28.40
2023-12-09T09:18:07.993Z,29.10
2023-12-09T09:20:37.790Z,29.25
2023-12-09T09:23:07.102Z,27.05
2023-12-09T09:25:36.224Z,28.45
2023-12-09T09:28:06.925Z,26.17
2023-12-09T09:30:36.217Z,27.55
2023-12-09T09:33:07.904Z,29.73
2023-12-09T09:35:37.078Z,26.90
2023-12-09T09:38:06.648Z,28.38
2023-12-09T09:40:35.812Z,30.92
2023-12-09T09:43:15.350Z,32.22
2023-12-09T09:45:48.380Z,34.25
2023-12-09T09:48:20.033Z,30.95
2023-12-09T09:50:54.616Z,31.52
2023-12-09T09:53:34.504Z,29.92
2023-12-09T09:56:04.824Z,34.65
2023-12-09T09:58:36.414Z,39.65
2023-12-09T10:01:07.235Z,39.15
2023-12-09T10:03:36.990Z,33.78
2023-12-09T10:06:11.141Z,30.67
2023-12-09T10:08:41.065Z,36.22
2023-12-09T10:11:10.798Z,49.15
2023-12-09T10:13:41.162Z,35.33
2023-12-09T10:16:10.532Z,35.58
2023-12-09T10:18:39.812Z,34.00
2023-12-09T10:21:10.220Z,34.33
2023-12-09T10:23:39.944Z,37.65
2023-12-09T10:26:10.501Z,34.05
2023-12-09T10:28:41.574Z,35.25
2023-12-09T10:31:12.077Z,40.03
2023-12-09T10:33:43.905Z,40.67
2023-12-09T10:36:13.166Z,44.10
2023-12-09T10:38:45.383Z,38.50
2023-12-09T10:41:16.426Z,34.50
2023-12-09T10:43:47.509Z,38.13
2023-12-09T10:46:20.100Z,36.42
2023-12-09T10:48:52.710Z,41.88
2023-12-09T10:51:24.509Z,33.33
2023-12-09T10:53:53.690Z,30.63
2023-12-09T10:56:22.870Z,39.75
2023-12-09T10:58:54.629Z,35.50
2023-12-09T11:01:25.678Z,44.17
2023-12-09T11:03:55.013Z,58.50
2023-12-09T11:06:26.476Z,44.20
2023-12-09T11:08:56.460Z,36.63
2023-12-09T11:11:27.511Z,39.58
2023-12-09T11:14:01.030Z,41.95
2023-12-09T11:16:31.385Z,34.53
2023-12-09T11:19:02.914Z,37.38
2023-12-09T11:21:33.055Z,35.72
2023-12-09T11:24:02.217Z,36.25
2023-12-09T11:26:32.964Z,35.40
2023-12-09T11:29:04.893Z,37.15
2023-12-09T11:31:37.676Z,33.75
2023-12-09T11:34:10.081Z,36.85
2023-12-09T11:36:40.596Z,34.22
2023-12-09T11:39:12.791Z,32.13
2023-12-09T11:41:42.703Z,36.13
2023-12-09T11:44:14.464Z,36.58
2023-12-09T11:46:44.813Z,40.75
2023-12-09T11:49:14.313Z,42.50
2023-12-09T11:51:43.631Z,45.12
2023-12-09T11:54:13.100Z,41.55
2023-12-09T11:56:42.697Z,37.35
2023-12-09T11:59:15.642Z,38.13
2023-12-09T12:01:45.490Z,35.42
2023-12-09T12:04:15.030Z,36.35
2023-12-09T12:06:44.455Z,35.50
2023-12-09T12:09:13.849Z,36.83
2023-12-09T12:11:43.288Z,47.58
2023-12-09T12:14:13.908Z,213.15
2023-12-09T12:16:44.709Z,59.72
2023-12-09T12:19:13.985Z,35.53
2023-12-09T12:21:43.393Z,41.42
2023-12-09T12:24:12.978Z,39.58
2023-12-09T12:26:41.884Z,45.78
2023-12-09T12:29:19.007Z,38.00
2023-12-09T12:31:50.763Z,43.15
2023-12-09T12:34:22.067Z,32.95
2023-12-09T12:36:53.843Z,32.63
2023-12-09T12:39:27.599Z,35.05
2023-12-09T12:41:58.800Z,43.90
2023-12-09T12:44:29.643Z,34.10
2023-12-09T12:47:00.727Z,31.05
2023-12-09T12:49:38.679Z,33.10
2023-12-09T12:52:08.469Z,33.10
2023-12-09T12:54:39.792Z,32.45
2023-12-09T12:57:09.260Z,32.83
2023-12-09T12:59:40.293Z,32.63
2023-12-09T13:02:09.528Z,33.33
2023-12-09T13:04:40.789Z,35.75
2023-12-09T13:07:10.135Z,78.30
2023-12-09T13:09:39.544Z,44.05
2023-12-09T13:12:10.137Z,34.45
2023-12-09T13:14:40.747Z,39.20
2023-12-09T13:17:10.722Z,37.10
2023-12-09T13:19:40.330Z,37.75
2023-12-09T13:22:09.478Z,36.42
2023-12-09T13:24:39.192Z,37.40
2023-12-09T13:27:09.550Z,39.25
2023-12-09T13:29:40.402Z,37.75
2023-12-09T13:32:09.472Z,46.28
2023-12-09T13:34:39.804Z,32.97
2023-12-09T13:37:09.493Z,35.72
2023-12-09T13:39:38.964Z,38.47
2023-12-09T13:42:08.550Z,44.90
2023-12-09T13:44:40.527Z,36.15
2023-12-09T13:47:11.877Z,39.35
2023-12-09T13:49:42.761Z,42.50
2023-12-09T13:52:12.251Z,38.67
2023-12-09T13:54:41.812Z,42.38
2023-12-09T13:57:11.971Z,40.33
2023-12-09T13:59:41.417Z,45.30
2023-12-09T14:02:13.432Z,43.78
2023-12-09T14:04:43.437Z,47.10
2023-12-09T14:07:12.974Z,46.30
2023-12-09T14:09:45.027Z,44.75
2023-12-09T14:12:14.182Z,40.35
2023-12-09T14:14:43.829Z,41.83
2023-12-09T14:17:15.199Z,42.15
2023-12-09T14:19:44.742Z,81.43
2023-12-09T14:22:14.113Z,66.53
2023-12-09T14:24:43.504Z,48.95
2023-12-09T14:27:13.925Z,61.30
2023-12-09T14:29:43.065Z,61.35
2023-12-09T14:32:15.154Z,44.47
2023-12-09T14:34:44.775Z,49.90
2023-12-09T14:37:14.490Z,53.35
2023-12-09T14:39:45.224Z,45.15
2023-12-09T14:42:14.717Z,43.03
2023-12-09T14:44:47.445Z,48.45
2023-12-09T14:47:18.912Z,43.03
2023-12-09T14:49:49.039Z,46.67
2023-12-09T14:52:19.300Z,49.17
2023-12-09T14:54:48.843Z,44.67
2023-12-09T14:57:17.907Z,43.28
2023-12-09T14:59:47.137Z,47.72
2023-12-09T15:02:17.925Z,46.25
2023-12-09T15:04:48.614Z,50.97
2023-12-09T15:07:17.875Z,46.75
2023-12-09T15:09:47.679Z,43.80
2023-12-09T15:12:17.892Z,49.78
2023-12-09T15:14:47.256Z,51.78
2023-12-09T15:17:23.465Z,43.80
2023-12-09T15:19:56.810Z,46.97
2023-12-09T15:22:28.060Z,43.97
2023-12-09T15:24:59.405Z,47.85
2023-12-09T15:27:29.408Z,40.65
2023-12-09T15:29:59.193Z,36.22
2023-12-09T15:32:30.218Z,49.58
2023-12-09T15:34:59.540Z,44.42
2023-12-09T15:37:28.843Z,39.40
2023-12-09T15:39:58.214Z,39.20
2023-12-09T15:42:28.255Z,39.60
2023-12-09T15:44:58.052Z,37.78
2023-12-09T15:47:27.463Z,41.45
2023-12-09T15:49:58.959Z,40.30
2023-12-09T15:52:28.695Z,42.28
2023-12-09T15:54:58.940Z,47.38
2023-12-09T15:57:28.243Z,39.03
2023-12-09T15:59:57.660Z,42.50
2023-12-09T16:02:29.511Z,45.38
2023-12-09T16:05:00.162Z,43.55
2023-12-09T16:07:30.113Z,46.47
2023-12-09T16:09:59.662Z,44.33
2023-12-09T16:12:28.802Z,39.17
2023-12-09T16:14:58.625Z,43.55
2023-12-09T16:17:29.140Z,41.75
2023-12-09T16:20:03.431Z,39.95
2023-12-09T16:22:32.840Z,42.30
2023-12-09T16:25:02.346Z,42.25
2023-12-09T16:27:32.914Z,44.45
2023-12-09T16:30:02.883Z,45.38
2023-12-09T16:32:33.541Z,43.83
2023-12-09T16:35:05.121Z,42.33
2023-12-09T16:37:35.387Z,45.23
2023-12-09T16:40:05.684Z,43.28
2023-12-09T16:42:37.337Z,43.72
2023-12-09T16:45:12.157Z,40.45
2023-12-09T16:47:42.595Z,39.00
2023-12-09T16:50:13.619Z,39.95
2023-12-09T16:52:43.507Z,42.15
2023-12-09T16:55:12.986Z,44.47
2023-12-09T16:57:42.420Z,40.17
2023-12-09T17:00:12.125Z,45.33
2023-12-09T17:02:41.380Z,44.88
2023-12-09T17:05:12.475Z,43.38
2023-12-09T17:07:43.196Z,43.45
2023-12-09T17:10:12.536Z,43.35
2023-12-09T17:12:42.238Z,42.47
2023-12-09T17:15:11.567Z,42.45
2023-12-09T17:17:40.597Z,43.40
2023-12-09T17:20:11.133Z,41.72
2023-12-09T17:22:40.542Z,37.58
2023-12-09T17:25:11.602Z,37.03
2023-12-09T17:27:41.698Z,37.33
2023-12-09T17:30:16.054Z,39.55
2023-12-09T17:32:45.270Z,38.60
2023-12-09T17:35:15.938Z,38.35
2023-12-09T17:37:45.213Z,42.38
2023-12-09T17:40:18.600Z,42.08
2023-12-09T17:42:48.145Z,44.60
2023-12-09T17:45:18.363Z,40.70
2023-12-09T17:47:48.302Z,41.37
2023-12-09T17:50:18.287Z,37.58
2023-12-09T17:52:47.480Z,40.67
2023-12-09T17:55:20.846Z,43.87
2023-12-09T17:57:50.403Z,40.12
2023-12-09T18:00:21.582Z,39.47
2023-12-09T18:02:50.940Z,38.58
2023-12-09T18:05:20.197Z,60.10
2023-12-09T18:07:49.528Z,38.92
2023-12-09T18:10:20.720Z,46.17
2023-12-09T18:12:53.612Z,49.60
2023-12-09T18:15:22.896Z,62.75
2023-12-09T18:17:54.541Z,102.03
2023-12-09T18:20:24.128Z,46.37
2023-12-09T18:22:57.170Z,54.80
2023-12-09T18:25:30.884Z,101.95
2023-12-09T18:28:00.005Z,38.90
2023-12-09T18:30:29.486Z,52.33
2023-12-09T18:32:59.326Z,42.05
2023-12-09T18:35:28.605Z,46.03
2023-12-09T18:37:58.383Z,38.38
2023-12-09T18:40:28.884Z,34.10
2023-12-09T18:43:00.491Z,41.60
2023-12-09T18:45:31.631Z,40.05
2023-12-09T18:48:01.575Z,41.13
2023-12-09T18:50:31.028Z,34.85
2023-12-09T18:53:00.259Z,34.10
2023-12-09T18:55:30.968Z,33.50
2023-12-09T18:58:00.623Z,32.72
2023-12-09T19:00:29.698Z,41.08
2023-12-09T19:03:01.661Z,40.38
2023-12-09T19:05:31.166Z,34.20
2023-12-09T19:08:00.233Z,33.58
2023-12-09T19:10:30.766Z,33.75
2023-12-09T19:13:02.949Z,31.62
2023-12-09T19:15:32.131Z,35.63
2023-12-09T19:18:02.070Z,43.60
2023-12-09T19:20:31.931Z,32.33
2023-12-09T19:23:01.216Z,30.67
2023-12-09T19:25:31.752Z,34.05
2023-12-09T19:28:01.271Z,34.08
2023-12-09T19:30:30.595Z,34.83
2023-12-09T19:33:00.477Z,32.35
2023-12-09T19:35:30.019Z,29.55
2023-12-09T19:38:01.170Z,36.63
2023-12-09T19:40:32.534Z,39.08
2023-12-09T19:43:01.782Z,34.90
2023-12-09T19:45:31.726Z,39.00
2023-12-09T19:48:02.953Z,38.60
2023-12-09T19:50:32.564Z,36.80
2023-12-09T19:53:05.117Z,37.75
2023-12-09T19:55:37.119Z,34.92
2023-12-09T19:58:07.760Z,36.83
2023-12-09T20:00:37.331Z,34.28
2023-12-09T20:03:07.069Z,52.83
2023-12-09T20:05:36.082Z,43.30
2023-12-09T20:08:05.025Z,35.75
2023-12-09T20:10:37.848Z,34.03
2023-12-09T20:15:36.059Z,33.35
2023-12-09T20:18:05.284Z,33.20
2023-12-09T20:20:34.438Z,34.92
2023-12-09T20:23:04.210Z,32.45
2023-12-09T20:25:34.519Z,34.63
2023-12-09T20:28:07.988Z,32.42
2023-12-09T20:30:39.127Z,32.88
2023-12-09T20:33:08.599Z,29.10
2023-12-09T20:35:37.680Z,33.47
2023-12-09T20:38:07.117Z,33.53
2023-12-09T20:40:36.788Z,36.95
2023-12-09T20:43:07.103Z,34.35
2023-12-09T20:45:38.196Z,38.67
2023-12-09T20:48:09.619Z,43.72
2023-12-09T20:50:41.084Z,35.25
2023-12-09T20:53:11.186Z,32.47
2023-12-09T20:55:41.141Z,33.22
2023-12-09T20:58:12.950Z,35.22
2023-12-09T21:00:42.479Z,37.15
2023-12-09T21:03:12.124Z,38.65
2023-12-09T21:05:42.934Z,33.67
2023-12-09T21:08:12.460Z,32.63
2023-12-09T21:10:41.977Z,35.20
2023-12-09T21:13:12.596Z,31.65
2023-12-09T21:15:44.519Z,35.42
2023-12-09T21:18:13.816Z,34.00
2023-12-09T21:20:43.839Z,35.75
2023-12-09T21:23:12.740Z,35.45
2023-12-09T21:25:41.780Z,32.60
2023-12-09T21:28:12.655Z,40.33
2023-12-09T21:30:41.906Z,42.55
2023-12-09T21:33:11.466Z,31.35
2023-12-09T21:35:40.838Z,37.67
2023-12-09T21:38:10.029Z,33.47
2023-12-09T21:40:39.275Z,34.72
2023-12-09T21:43:08.417Z,37.67
2023-12-09T21:45:41.261Z,33.17
2023-12-09T21:48:10.961Z,37.35
2023-12-09T21:50:40.492Z,36.28
2023-12-09T21:53:12.381Z,38.92
2023-12-09T21:55:42.167Z,42.10
2023-12-09T21:58:11.848Z,34.85
2023-12-09T22:00:43.303Z,34.20
2023-12-09T22:03:12.755Z,38.67
2023-12-09T22:05:44.008Z,45.58
2023-12-09T22:08:13.658Z,41.08
2023-12-09T22:10:43.148Z,37.13
2023-12-09T22:13:12.388Z,44.25
2023-12-09T22:15:44.551Z,38.45
2023-12-09T22:18:13.651Z,40.93
2023-12-09T22:20:43.638Z,76.20
2023-12-09T22:23:12.936Z,75.25
2023-12-09T22:25:42.670Z,332.27
2023-12-09T22:28:12.131Z,133.23
2023-12-09T22:30:41.422Z,481.85
2023-12-09T22:33:16.333Z,318.77
2023-12-09T22:35:46.026Z,227.25
2023-12-09T22:38:18.438Z,123.93
2023-12-09T22:40:48.002Z,54.35
2023-12-09T22:43:17.593Z,83.80
2023-12-09T22:45:46.690Z,38.15
2023-12-09T22:48:17.821Z,38.72
2023-12-09T22:50:47.584Z,46.40
2023-12-09T22:53:16.798Z,38.72
2023-12-09T22:55:46.126Z,37.08
2023-12-09T22:58:15.601Z,47.25
2023-12-09T23:00:45.476Z,30.35
2023-12-09T23:03:14.465Z,38.40
2023-12-09T23:05:45.214Z,28.48
2023-12-09T23:08:14.463Z,41.22
2023-12-09T23:10:44.123Z,27.13
2023-12-09T23:13:15.472Z,34.83
2023-12-09T23:15:45.011Z,31.42
2023-12-09T23:18:14.217Z,32.78
2023-12-09T23:20:47.232Z,32.38
2023-12-09T23:23:16.841Z,35.30
2023-12-09T23:25:46.688Z,29.33
2023-12-09T23:28:16.001Z,31.20
2023-12-09T23:30:45.946Z,25.42
2023-12-09T23:33:15.380Z,27.05
2023-12-09T23:35:46.203Z,32.88
2023-12-09T23:38:15.770Z,37.35
2023-12-09T23:40:44.731Z,32.00
2023-12-09T23:43:13.943Z,30.20
2023-12-09T23:45:44.737Z,29.60
2023-12-09T23:48:20.403Z,33.70
2023-12-09T23:50:51.346Z,33.35
2023-12-09T23:53:20.565Z,34.47
2023-12-09T23:55:50.200Z,32.80
2023-12-09T23:58:19.389Z,28.00
